CheckWX is a tool to help pilots better visualize weather data.  It is not intended as a substitute for an official pre-flight weather briefing.

04:52:09 UTC

C09 METAR
Morris Municipal - James R Washburn Field Airport
Morris, Illinois, USA
Current

17 mins ago

KC09 260435Z AUTO 11008KT 10SM SCT075 SCT090 BKN120 21/15 A2993 RMK AO2 T02100151
Observed
Aug-26 @ 04:35 UTC
Wind
  • 110° at 8 KTS
Visibility
10 SM
Flight Rules
VFR
Cloud Levels
  • Scattered at 7,500' AGL
  • Scattered at 9,000' AGL
  • Broken at 12,000' AGL
Temperature
21°C / 70°F
Dewpoint
15°C / 59°F
Humidity
69%
Altimeter
29.93" Hg
Pressure
1013.52 hPa
Previous

37 mins ago

KC09 260415Z AUTO 11009G14KT 10SM SCT075 SCT090 SCT110 21/15 A2994 RMK AO2 T02120151
Observed
Aug-26 @ 04:15 UTC
Wind
  • 110° at 9 KTS
  • Gusting to 14 KTS
Visibility
10 SM
Flight Rules
VFR
Cloud Levels
  • Scattered at 7,500' AGL
  • Scattered at 9,000' AGL
  • Scattered at 11,000' AGL
Temperature
21°C / 70°F
Dewpoint
15°C / 59°F
Humidity
69%
Altimeter
29.94" Hg
Pressure
1013.92 hPa
Previous

57 mins ago

KC09 260355Z AUTO 11007KT 10SM SCT075 SCT110 21/15 A2994 RMK AO2 T02100150
Observed
Aug-26 @ 03:55 UTC
Wind
  • 110° at 7 KTS
Visibility
10 SM
Flight Rules
VFR
Cloud Levels
  • Scattered at 7,500' AGL
  • Scattered at 11,000' AGL
Temperature
21°C / 70°F
Dewpoint
15°C / 59°F
Humidity
69%
Altimeter
29.94" Hg
Pressure
1013.92 hPa